sensor_id;sensor_type;location;lat;lon;timestamp;P1;durP1;ratioP1;P2;durP2;ratioP2
11084;SDS011;5596;46.826;8.650;2022-07-25T00:01:30;14.57;;;12.70;;
11084;SDS011;5596;46.826;8.650;2022-07-25T00:03:57;14.02;;;12.73;;
11084;SDS011;5596;46.826;8.650;2022-07-25T00:06:24;13.60;;;12.23;;
11084;SDS011;5596;46.826;8.650;2022-07-25T00:08:51;15.00;;;12.93;;
11084;SDS011;5596;46.826;8.650;2022-07-25T00:11:18;15.77;;;13.48;;
11084;SDS011;5596;46.826;8.650;2022-07-25T00:13:45;15.27;;;13.15;;
11084;SDS011;5596;46.826;8.650;2022-07-25T00:16:12;15.52;;;13.15;;
11084;SDS011;5596;46.826;8.650;2022-07-25T00:18:40;14.25;;;12.75;;
11084;SDS011;5596;46.826;8.650;2022-07-25T00:21:08;17.05;;;13.82;;
11084;SDS011;5596;46.826;8.650;2022-07-25T00:23:35;14.60;;;13.20;;
11084;SDS011;5596;46.826;8.650;2022-07-25T00:26:02;19.73;;;13.45;;
11084;SDS011;5596;46.826;8.650;2022-07-25T00:28:29;14.93;;;13.40;;
11084;SDS011;5596;46.826;8.650;2022-07-25T00:30:56;14.70;;;13.23;;
11084;SDS011;5596;46.826;8.650;2022-07-25T00:33:23;15.55;;;13.90;;
11084;SDS011;5596;46.826;8.650;2022-07-25T00:35:51;14.95;;;13.43;;
11084;SDS011;5596;46.826;8.650;2022-07-25T00:38:18;16.13;;;13.68;;
11084;SDS011;5596;46.826;8.650;2022-07-25T00:40:45;16.73;;;14.27;;
11084;SDS011;5596;46.826;8.650;2022-07-25T00:43:12;15.40;;;13.80;;
11084;SDS011;5596;46.826;8.650;2022-07-25T00:45:40;14.80;;;13.27;;
11084;SDS011;5596;46.826;8.650;2022-07-25T00:48:06;14.88;;;13.27;;
11084;SDS011;5596;46.826;8.650;2022-07-25T00:50:34;14.93;;;13.15;;
11084;SDS011;5596;46.826;8.650;2022-07-25T00:53:02;15.13;;;13.48;;
11084;SDS011;5596;46.826;8.650;2022-07-25T00:55:30;19.40;;;13.75;;
11084;SDS011;5596;46.826;8.650;2022-07-25T00:57:58;14.32;;;12.82;;
11084;SDS011;5596;46.826;8.650;2022-07-25T01:00:25;19.42;;;13.88;;
11084;SDS011;5596;46.826;8.650;2022-07-25T01:02:52;14.77;;;13.32;;
11084;SDS011;5596;46.826;8.650;2022-07-25T01:05:19;16.67;;;13.30;;
11084;SDS011;5596;46.826;8.650;2022-07-25T01:07:46;18.88;;;14.13;;
11084;SDS011;5596;46.826;8.650;2022-07-25T01:10:15;14.93;;;12.65;;
11084;SDS011;5596;46.826;8.650;2022-07-25T01:12:43;14.32;;;12.93;;
11084;SDS011;5596;46.826;8.650;2022-07-25T01:15:10;14.98;;;13.18;;
11084;SDS011;5596;46.826;8.650;2022-07-25T01:17:38;14.30;;;12.90;;
11084;SDS011;5596;46.826;8.650;2022-07-25T01:22:38;13.88;;;12.48;;
11084;SDS011;5596;46.826;8.650;2022-07-25T01:25:05;14.27;;;11.90;;
11084;SDS011;5596;46.826;8.650;2022-07-25T01:27:33;15.73;;;12.73;;
11084;SDS011;5596;46.826;8.650;2022-07-25T01:30:00;16.45;;;12.48;;
11084;SDS011;5596;46.826;8.650;2022-07-25T01:32:28;16.50;;;12.00;;
11084;SDS011;5596;46.826;8.650;2022-07-25T01:34:55;14.80;;;13.23;;
11084;SDS011;5596;46.826;8.650;2022-07-25T01:37:24;14.55;;;12.90;;
11084;SDS011;5596;46.826;8.650;2022-07-25T01:39:51;14.68;;;12.95;;
11084;SDS011;5596;46.826;8.650;2022-07-25T01:42:18;16.65;;;13.88;;
11084;SDS011;5596;46.826;8.650;2022-07-25T01:44:45;14.00;;;12.40;;
11084;SDS011;5596;46.826;8.650;2022-07-25T01:47:12;14.07;;;12.68;;
11084;SDS011;5596;46.826;8.650;2022-07-25T01:49:39;14.40;;;12.80;;
11084;SDS011;5596;46.826;8.650;2022-07-25T01:52:06;15.05;;;13.45;;
11084;SDS011;5596;46.826;8.650;2022-07-25T01:54:35;14.32;;;12.88;;
11084;SDS011;5596;46.826;8.650;2022-07-25T01:57:02;15.98;;;13.27;;
11084;SDS011;5596;46.826;8.650;2022-07-25T01:59:30;15.80;;;13.10;;
11084;SDS011;5596;46.826;8.650;2022-07-25T02:01:57;15.05;;;13.15;;
11084;SDS011;5596;46.826;8.650;2022-07-25T02:04:24;15.43;;;13.82;;
11084;SDS011;5596;46.826;8.650;2022-07-25T02:06:51;15.20;;;13.38;;
11084;SDS011;5596;46.826;8.650;2022-07-25T02:09:18;14.75;;;12.50;;
11084;SDS011;5596;46.826;8.650;2022-07-25T02:11:46;15.85;;;13.50;;
11084;SDS011;5596;46.826;8.650;2022-07-25T02:14:13;14.50;;;12.98;;
11084;SDS011;5596;46.826;8.650;2022-07-25T02:16:42;14.63;;;12.50;;
11084;SDS011;5596;46.826;8.650;2022-07-25T02:19:09;14.15;;;12.65;;
11084;SDS011;5596;46.826;8.650;2022-07-25T02:21:36;13.63;;;12.30;;
11084;SDS011;5596;46.826;8.650;2022-07-25T02:24:03;13.85;;;12.45;;
11084;SDS011;5596;46.826;8.650;2022-07-25T02:26:31;15.43;;;13.77;;
11084;SDS011;5596;46.826;8.650;2022-07-25T02:28:59;15.50;;;13.60;;
11084;SDS011;5596;46.826;8.650;2022-07-25T02:31:26;16.15;;;13.30;;
11084;SDS011;5596;46.826;8.650;2022-07-25T02:33:54;14.27;;;12.88;;
11084;SDS011;5596;46.826;8.650;2022-07-25T02:36:21;17.65;;;13.98;;
11084;SDS011;5596;46.826;8.650;2022-07-25T02:38:48;16.33;;;13.73;;
11084;SDS011;5596;46.826;8.650;2022-07-25T02:41:15;16.92;;;14.18;;
11084;SDS011;5596;46.826;8.650;2022-07-25T02:43:42;14.52;;;13.02;;
11084;SDS011;5596;46.826;8.650;2022-07-25T02:46:10;14.73;;;13.05;;
11084;SDS011;5596;46.826;8.650;2022-07-25T02:48:37;13.70;;;12.30;;
11084;SDS011;5596;46.826;8.650;2022-07-25T02:51:04;13.98;;;12.57;;
11084;SDS011;5596;46.826;8.650;2022-07-25T02:53:31;15.13;;;13.30;;
11084;SDS011;5596;46.826;8.650;2022-07-25T02:55:58;17.00;;;13.63;;
11084;SDS011;5596;46.826;8.650;2022-07-25T02:58:25;14.10;;;12.73;;
11084;SDS011;5596;46.826;8.650;2022-07-25T03:00:53;14.88;;;12.73;;
11084;SDS011;5596;46.826;8.650;2022-07-25T03:03:21;14.65;;;13.15;;
11084;SDS011;5596;46.826;8.650;2022-07-25T03:05:48;14.15;;;12.75;;
11084;SDS011;5596;46.826;8.650;2022-07-25T03:08:15;14.52;;;13.13;;
11084;SDS011;5596;46.826;8.650;2022-07-25T03:10:42;14.52;;;13.07;;
11084;SDS011;5596;46.826;8.650;2022-07-25T03:13:09;15.15;;;13.23;;
11084;SDS011;5596;46.826;8.650;2022-07-25T03:15:36;15.48;;;13.38;;
11084;SDS011;5596;46.826;8.650;2022-07-25T03:18:04;15.68;;;13.23;;
11084;SDS011;5596;46.826;8.650;2022-07-25T03:20:32;14.02;;;12.65;;
11084;SDS011;5596;46.826;8.650;2022-07-25T03:22:59;14.55;;;13.00;;
11084;SDS011;5596;46.826;8.650;2022-07-25T03:25:26;14.27;;;12.77;;
11084;SDS011;5596;46.826;8.650;2022-07-25T03:27:54;14.40;;;12.90;;
11084;SDS011;5596;46.826;8.650;2022-07-25T03:30:21;15.30;;;13.80;;
11084;SDS011;5596;46.826;8.650;2022-07-25T03:32:48;16.98;;;13.40;;
11084;SDS011;5596;46.826;8.650;2022-07-25T03:35:15;15.32;;;13.57;;
11084;SDS011;5596;46.826;8.650;2022-07-25T03:37:44;13.82;;;12.43;;
11084;SDS011;5596;46.826;8.650;2022-07-25T03:40:11;14.75;;;12.95;;
11084;SDS011;5596;46.826;8.650;2022-07-25T03:42:39;14.88;;;13.35;;
11084;SDS011;5596;46.826;8.650;2022-07-25T03:45:07;16.63;;;13.52;;
11084;SDS011;5596;46.826;8.650;2022-07-25T03:47:35;14.60;;;12.63;;
11084;SDS011;5596;46.826;8.650;2022-07-25T03:50:02;14.82;;;13.32;;
11084;SDS011;5596;46.826;8.650;2022-07-25T03:52:30;15.20;;;13.55;;
11084;SDS011;5596;46.826;8.650;2022-07-25T03:54:59;15.55;;;13.90;;
11084;SDS011;5596;46.826;8.650;2022-07-25T03:57:27;14.35;;;12.85;;
11084;SDS011;5596;46.826;8.650;2022-07-25T03:59:54;17.27;;;13.15;;
11084;SDS011;5596;46.826;8.650;2022-07-25T04:02:21;14.65;;;13.15;;
11084;SDS011;5596;46.826;8.650;2022-07-25T04:04:48;13.82;;;12.50;;
11084;SDS011;5596;46.826;8.650;2022-07-25T04:07:15;15.05;;;13.55;;
11084;SDS011;5596;46.826;8.650;2022-07-25T04:09:43;15.13;;;13.52;;
11084;SDS011;5596;46.826;8.650;2022-07-25T04:12:12;17.02;;;14.02;;
11084;SDS011;5596;46.826;8.650;2022-07-25T04:14:39;16.67;;;13.32;;
11084;SDS011;5596;46.826;8.650;2022-07-25T04:17:06;14.40;;;13.00;;
11084;SDS011;5596;46.826;8.650;2022-07-25T04:19:33;15.48;;;13.88;;
11084;SDS011;5596;46.826;8.650;2022-07-25T04:22:00;14.30;;;12.80;;
11084;SDS011;5596;46.826;8.650;2022-07-25T04:24:27;14.27;;;12.77;;
11084;SDS011;5596;46.826;8.650;2022-07-25T04:26:54;14.35;;;12.85;;
11084;SDS011;5596;46.826;8.650;2022-07-25T04:29:22;16.48;;;13.73;;
11084;SDS011;5596;46.826;8.650;2022-07-25T04:31:49;14.77;;;13.27;;
11084;SDS011;5596;46.826;8.650;2022-07-25T04:34:17;14.90;;;13.30;;
11084;SDS011;5596;46.826;8.650;2022-07-25T04:36:44;16.23;;;13.73;;
11084;SDS011;5596;46.826;8.650;2022-07-25T04:39:11;14.65;;;13.18;;
11084;SDS011;5596;46.826;8.650;2022-07-25T04:41:38;15.13;;;13.55;;
11084;SDS011;5596;46.826;8.650;2022-07-25T04:44:06;15.70;;;14.20;;
11084;SDS011;5596;46.826;8.650;2022-07-25T04:46:34;15.45;;;13.85;;
11084;SDS011;5596;46.826;8.650;2022-07-25T04:49:01;15.75;;;14.10;;
11084;SDS011;5596;46.826;8.650;2022-07-25T04:51:28;15.20;;;13.60;;
11084;SDS011;5596;46.826;8.650;2022-07-25T04:53:55;15.07;;;13.32;;
11084;SDS011;5596;46.826;8.650;2022-07-25T04:56:23;15.63;;;14.05;;
11084;SDS011;5596;46.826;8.650;2022-07-25T04:58:50;15.48;;;13.40;;
11084;SDS011;5596;46.826;8.650;2022-07-25T05:01:17;15.30;;;13.77;;
11084;SDS011;5596;46.826;8.650;2022-07-25T05:03:46;15.10;;;13.60;;
11084;SDS011;5596;46.826;8.650;2022-07-25T05:06:13;14.60;;;13.05;;
11084;SDS011;5596;46.826;8.650;2022-07-25T05:08:40;15.73;;;13.52;;
11084;SDS011;5596;46.826;8.650;2022-07-25T05:11:07;13.75;;;12.40;;
11084;SDS011;5596;46.826;8.650;2022-07-25T05:13:34;15.70;;;13.75;;
11084;SDS011;5596;46.826;8.650;2022-07-25T05:16:01;15.27;;;13.48;;
11084;SDS011;5596;46.826;8.650;2022-07-25T05:18:29;14.27;;;12.77;;
11084;SDS011;5596;46.826;8.650;2022-07-25T05:20:57;14.68;;;13.05;;
11084;SDS011;5596;46.826;8.650;2022-07-25T05:23:24;16.30;;;12.98;;
11084;SDS011;5596;46.826;8.650;2022-07-25T05:25:51;15.73;;;13.35;;
11084;SDS011;5596;46.826;8.650;2022-07-25T05:28:18;15.50;;;13.88;;
11084;SDS011;5596;46.826;8.650;2022-07-25T05:30:45;18.02;;;13.98;;
11084;SDS011;5596;46.826;8.650;2022-07-25T05:33:12;17.45;;;12.85;;
11084;SDS011;5596;46.826;8.650;2022-07-25T05:35:40;15.25;;;13.57;;
11084;SDS011;5596;46.826;8.650;2022-07-25T05:38:09;14.63;;;13.07;;
11084;SDS011;5596;46.826;8.650;2022-07-25T05:40:36;13.93;;;12.52;;
11084;SDS011;5596;46.826;8.650;2022-07-25T05:43:03;14.18;;;12.70;;
11084;SDS011;5596;46.826;8.650;2022-07-25T05:45:31;14.10;;;12.57;;
11084;SDS011;5596;46.826;8.650;2022-07-25T05:47:58;14.63;;;12.98;;
11084;SDS011;5596;46.826;8.650;2022-07-25T05:50:25;15.30;;;12.82;;
11084;SDS011;5596;46.826;8.650;2022-07-25T05:52:52;14.68;;;12.95;;
11084;SDS011;5596;46.826;8.650;2022-07-25T05:55:20;16.25;;;13.40;;
11084;SDS011;5596;46.826;8.650;2022-07-25T05:57:47;16.00;;;13.32;;
11084;SDS011;5596;46.826;8.650;2022-07-25T06:00:15;14.57;;;13.07;;
11084;SDS011;5596;46.826;8.650;2022-07-25T06:02:45;17.83;;;13.80;;
11084;SDS011;5596;46.826;8.650;2022-07-25T06:05:12;15.52;;;13.02;;
11084;SDS011;5596;46.826;8.650;2022-07-25T06:07:39;17.00;;;13.30;;
11084;SDS011;5596;46.826;8.650;2022-07-25T06:10:07;14.20;;;12.70;;
11084;SDS011;5596;46.826;8.650;2022-07-25T06:12:36;14.15;;;12.65;;
11084;SDS011;5596;46.826;8.650;2022-07-25T06:15:03;14.65;;;13.13;;
11084;SDS011;5596;46.826;8.650;2022-07-25T06:17:31;14.65;;;13.07;;
11084;SDS011;5596;46.826;8.650;2022-07-25T06:19:58;15.18;;;13.13;;
11084;SDS011;5596;46.826;8.650;2022-07-25T06:22:25;13.68;;;12.38;;
11084;SDS011;5596;46.826;8.650;2022-07-25T06:24:52;18.08;;;12.88;;
11084;SDS011;5596;46.826;8.650;2022-07-25T06:27:19;16.00;;;13.45;;
11084;SDS011;5596;46.826;8.650;2022-07-25T06:29:48;15.40;;;12.98;;
11084;SDS011;5596;46.826;8.650;2022-07-25T06:32:15;14.75;;;13.25;;
11084;SDS011;5596;46.826;8.650;2022-07-25T06:34:42;15.93;;;14.32;;
11084;SDS011;5596;46.826;8.650;2022-07-25T06:37:09;14.75;;;13.25;;
11084;SDS011;5596;46.826;8.650;2022-07-25T06:39:36;13.65;;;12.35;;
11084;SDS011;5596;46.826;8.650;2022-07-25T06:42:03;14.73;;;12.98;;
11084;SDS011;5596;46.826;8.650;2022-07-25T06:44:32;15.50;;;13.98;;
11084;SDS011;5596;46.826;8.650;2022-07-25T06:47:01;15.93;;;13.38;;
11084;SDS011;5596;46.826;8.650;2022-07-25T06:49:29;14.43;;;12.93;;
11084;SDS011;5596;46.826;8.650;2022-07-25T06:51:57;13.93;;;12.68;;
11084;SDS011;5596;46.826;8.650;2022-07-25T06:54:24;13.73;;;12.43;;
11084;SDS011;5596;46.826;8.650;2022-07-25T06:56:51;14.75;;;12.63;;
11084;SDS011;5596;46.826;8.650;2022-07-25T06:59:18;15.02;;;12.63;;
11084;SDS011;5596;46.826;8.650;2022-07-25T07:01:45;14.82;;;13.02;;
11084;SDS011;5596;46.826;8.650;2022-07-25T07:04:13;14.95;;;13.45;;
11084;SDS011;5596;46.826;8.650;2022-07-25T07:06:40;13.38;;;11.98;;
11084;SDS011;5596;46.826;8.650;2022-07-25T07:09:08;14.48;;;12.98;;
11084;SDS011;5596;46.826;8.650;2022-07-25T07:11:35;14.80;;;12.70;;
11084;SDS011;5596;46.826;8.650;2022-07-25T07:14:02;13.70;;;12.35;;
11084;SDS011;5596;46.826;8.650;2022-07-25T07:16:30;13.18;;;11.88;;
11084;SDS011;5596;46.826;8.650;2022-07-25T07:18:57;12.40;;;11.30;;
11084;SDS011;5596;46.826;8.650;2022-07-25T07:21:25;13.27;;;11.88;;
11084;SDS011;5596;46.826;8.650;2022-07-25T07:23:52;13.57;;;12.18;;
11084;SDS011;5596;46.826;8.650;2022-07-25T07:26:19;14.15;;;12.20;;
11084;SDS011;5596;46.826;8.650;2022-07-25T07:28:46;11.88;;;10.77;;
11084;SDS011;5596;46.826;8.650;2022-07-25T07:31:14;14.02;;;11.15;;
11084;SDS011;5596;46.826;8.650;2022-07-25T07:33:41;11.80;;;10.63;;
11084;SDS011;5596;46.826;8.650;2022-07-25T07:36:09;11.77;;;10.63;;
11084;SDS011;5596;46.826;8.650;2022-07-25T07:38:37;11.07;;;9.88;;
11084;SDS011;5596;46.826;8.650;2022-07-25T07:41:04;12.40;;;10.65;;
11084;SDS011;5596;46.826;8.650;2022-07-25T07:43:32;11.60;;;10.50;;
11084;SDS011;5596;46.826;8.650;2022-07-25T07:46:00;11.00;;;9.90;;
11084;SDS011;5596;46.826;8.650;2022-07-25T07:48:27;10.75;;;9.65;;
11084;SDS011;5596;46.826;8.650;2022-07-25T07:50:54;10.88;;;9.85;;
11084;SDS011;5596;46.826;8.650;2022-07-25T07:53:22;10.85;;;9.82;;
11084;SDS011;5596;46.826;8.650;2022-07-25T07:56:11;12.13;;;10.30;;
11084;SDS011;5596;46.826;8.650;2022-07-25T07:58:37;10.82;;;9.73;;
11084;SDS011;5596;46.826;8.650;2022-07-25T08:01:05;11.25;;;10.20;;
11084;SDS011;5596;46.826;8.650;2022-07-25T08:03:32;11.65;;;10.45;;
11084;SDS011;5596;46.826;8.650;2022-07-25T08:05:59;11.43;;;10.38;;
11084;SDS011;5596;46.826;8.650;2022-07-25T08:08:26;10.88;;;9.77;;
11084;SDS011;5596;46.826;8.650;2022-07-25T08:10:53;11.32;;;10.23;;
11084;SDS011;5596;46.826;8.650;2022-07-25T08:13:22;11.77;;;10.68;;
11084;SDS011;5596;46.826;8.650;2022-07-25T08:15:55;15.88;;;11.23;;
11084;SDS011;5596;46.826;8.650;2022-07-25T08:18:24;11.70;;;10.55;;
11084;SDS011;5596;46.826;8.650;2022-07-25T08:20:54;11.77;;;10.68;;
11084;SDS011;5596;46.826;8.650;2022-07-25T08:23:21;12.02;;;10.63;;
11084;SDS011;5596;46.826;8.650;2022-07-25T08:25:49;12.48;;;11.27;;
11084;SDS011;5596;46.826;8.650;2022-07-25T08:28:16;12.85;;;11.55;;
11084;SDS011;5596;46.826;8.650;2022-07-25T08:30:45;11.65;;;10.52;;
11084;SDS011;5596;46.826;8.650;2022-07-25T08:33:13;12.10;;;10.95;;
11084;SDS011;5596;46.826;8.650;2022-07-25T08:35:44;12.77;;;11.57;;
11084;SDS011;5596;46.826;8.650;2022-07-25T08:38:12;11.90;;;10.88;;
11084;SDS011;5596;46.826;8.650;2022-07-25T08:40:39;11.60;;;10.43;;
11084;SDS011;5596;46.826;8.650;2022-07-25T08:43:09;12.32;;;11.13;;
11084;SDS011;5596;46.826;8.650;2022-07-25T08:45:38;11.68;;;10.52;;
11084;SDS011;5596;46.826;8.650;2022-07-25T08:48:11;13.30;;;11.90;;
11084;SDS011;5596;46.826;8.650;2022-07-25T08:50:38;12.98;;;11.88;;
11084;SDS011;5596;46.826;8.650;2022-07-25T08:53:06;12.73;;;11.57;;
11084;SDS011;5596;46.826;8.650;2022-07-25T08:55:34;13.38;;;11.82;;
11084;SDS011;5596;46.826;8.650;2022-07-25T08:58:01;13.18;;;11.40;;
11084;SDS011;5596;46.826;8.650;2022-07-25T09:00:28;12.70;;;11.52;;
11084;SDS011;5596;46.826;8.650;2022-07-25T09:02:58;13.50;;;12.25;;
11084;SDS011;5596;46.826;8.650;2022-07-25T09:05:28;14.30;;;12.85;;
11084;SDS011;5596;46.826;8.650;2022-07-25T09:08:04;14.82;;;12.82;;
11084;SDS011;5596;46.826;8.650;2022-07-25T09:10:33;12.40;;;11.30;;
11084;SDS011;5596;46.826;8.650;2022-07-25T09:13:01;14.52;;;12.30;;
11084;SDS011;5596;46.826;8.650;2022-07-25T09:15:32;13.23;;;11.95;;
11084;SDS011;5596;46.826;8.650;2022-07-25T09:18:02;13.35;;;11.75;;
11084;SDS011;5596;46.826;8.650;2022-07-25T09:20:39;12.95;;;11.55;;
11084;SDS011;5596;46.826;8.650;2022-07-25T09:23:08;12.95;;;11.20;;
11084;SDS011;5596;46.826;8.650;2022-07-25T09:25:35;12.10;;;10.82;;
11084;SDS011;5596;46.826;8.650;2022-07-25T09:28:12;12.68;;;11.25;;
11084;SDS011;5596;46.826;8.650;2022-07-25T09:30:51;13.30;;;12.10;;
11084;SDS011;5596;46.826;8.650;2022-07-25T09:33:20;13.25;;;11.95;;
11084;SDS011;5596;46.826;8.650;2022-07-25T09:35:50;12.88;;;11.68;;
11084;SDS011;5596;46.826;8.650;2022-07-25T09:38:17;12.60;;;11.32;;
11084;SDS011;5596;46.826;8.650;2022-07-25T09:40:56;11.98;;;10.90;;
11084;SDS011;5596;46.826;8.650;2022-07-25T09:43:34;13.30;;;12.10;;
11084;SDS011;5596;46.826;8.650;2022-07-25T09:46:02;13.35;;;12.15;;
11084;SDS011;5596;46.826;8.650;2022-07-25T09:48:31;12.68;;;11.13;;
11084;SDS011;5596;46.826;8.650;2022-07-25T09:50:59;13.02;;;11.68;;
11084;SDS011;5596;46.826;8.650;2022-07-25T09:53:26;12.55;;;11.27;;
11084;SDS011;5596;46.826;8.650;2022-07-25T09:55:54;12.57;;;11.18;;
11084;SDS011;5596;46.826;8.650;2022-07-25T09:58:22;12.80;;;11.60;;
11084;SDS011;5596;46.826;8.650;2022-07-25T10:00:49;12.55;;;11.45;;
11084;SDS011;5596;46.826;8.650;2022-07-25T10:03:21;13.10;;;11.60;;
11084;SDS011;5596;46.826;8.650;2022-07-25T10:06:01;12.50;;;11.23;;
11084;SDS011;5596;46.826;8.650;2022-07-25T10:08:37;11.48;;;10.52;;
11084;SDS011;5596;46.826;8.650;2022-07-25T10:11:11;11.98;;;10.68;;
11084;SDS011;5596;46.826;8.650;2022-07-25T10:13:44;11.73;;;10.65;;
11084;SDS011;5596;46.826;8.650;2022-07-25T10:16:15;11.45;;;10.43;;
11084;SDS011;5596;46.826;8.650;2022-07-25T10:18:48;11.70;;;10.55;;
11084;SDS011;5596;46.826;8.650;2022-07-25T10:21:19;11.60;;;10.50;;
11084;SDS011;5596;46.826;8.650;2022-07-25T10:23:57;11.40;;;10.30;;
11084;SDS011;5596;46.826;8.650;2022-07-25T10:26:30;11.93;;;10.73;;
11084;SDS011;5596;46.826;8.650;2022-07-25T10:28:57;11.75;;;10.52;;
11084;SDS011;5596;46.826;8.650;2022-07-25T10:31:33;12.65;;;11.32;;
11084;SDS011;5596;46.826;8.650;2022-07-25T10:34:03;12.13;;;11.02;;
11084;SDS011;5596;46.826;8.650;2022-07-25T10:36:43;12.15;;;10.85;;
11084;SDS011;5596;46.826;8.650;2022-07-25T10:39:12;11.50;;;10.38;;
11084;SDS011;5596;46.826;8.650;2022-07-25T10:41:41;12.18;;;10.82;;
11084;SDS011;5596;46.826;8.650;2022-07-25T10:44:10;12.05;;;10.85;;
11084;SDS011;5596;46.826;8.650;2022-07-25T10:46:39;10.75;;;9.75;;
11084;SDS011;5596;46.826;8.650;2022-07-25T10:49:16;11.70;;;10.50;;
11084;SDS011;5596;46.826;8.650;2022-07-25T10:51:53;11.43;;;10.32;;
11084;SDS011;5596;46.826;8.650;2022-07-25T10:54:22;11.77;;;10.68;;
11084;SDS011;5596;46.826;8.650;2022-07-25T10:56:50;11.07;;;10.02;;
11084;SDS011;5596;46.826;8.650;2022-07-25T10:59:25;11.40;;;10.20;;
11084;SDS011;5596;46.826;8.650;2022-07-25T11:01:54;10.30;;;9.27;;
11084;SDS011;5596;46.826;8.650;2022-07-25T11:04:21;13.82;;;10.13;;
11084;SDS011;5596;46.826;8.650;2022-07-25T11:06:49;10.85;;;9.95;;
11084;SDS011;5596;46.826;8.650;2022-07-25T11:09:18;11.35;;;10.25;;
11084;SDS011;5596;46.826;8.650;2022-07-25T11:11:46;11.23;;;10.07;;
11084;SDS011;5596;46.826;8.650;2022-07-25T11:14:18;10.38;;;9.45;;
11084;SDS011;5596;46.826;8.650;2022-07-25T11:16:48;10.30;;;9.38;;
11084;SDS011;5596;46.826;8.650;2022-07-25T11:19:19;10.30;;;9.32;;
11084;SDS011;5596;46.826;8.650;2022-07-25T11:21:48;10.30;;;9.30;;
11084;SDS011;5596;46.826;8.650;2022-07-25T11:24:16;10.43;;;9.43;;
11084;SDS011;5596;46.826;8.650;2022-07-25T11:26:47;10.23;;;9.35;;
11084;SDS011;5596;46.826;8.650;2022-07-25T11:29:17;10.05;;;9.15;;
11084;SDS011;5596;46.826;8.650;2022-07-25T11:31:50;10.63;;;9.30;;
11084;SDS011;5596;46.826;8.650;2022-07-25T11:34:17;10.65;;;9.65;;
11084;SDS011;5596;46.826;8.650;2022-07-25T11:36:47;11.38;;;10.18;;
11084;SDS011;5596;46.826;8.650;2022-07-25T11:39:14;10.65;;;9.65;;
11084;SDS011;5596;46.826;8.650;2022-07-25T11:41:43;10.75;;;9.65;;
11084;SDS011;5596;46.826;8.650;2022-07-25T11:44:10;10.60;;;9.57;;
11084;SDS011;5596;46.826;8.650;2022-07-25T11:46:41;9.85;;;8.95;;
11084;SDS011;5596;46.826;8.650;2022-07-25T11:49:09;10.52;;;9.48;;
11084;SDS011;5596;46.826;8.650;2022-07-25T11:51:37;10.80;;;9.80;;
11084;SDS011;5596;46.826;8.650;2022-07-25T11:54:06;10.38;;;9.25;;
11084;SDS011;5596;46.826;8.650;2022-07-25T11:56:38;10.52;;;9.52;;
11084;SDS011;5596;46.826;8.650;2022-07-25T11:59:07;10.75;;;9.65;;
11084;SDS011;5596;46.826;8.650;2022-07-25T12:01:35;9.90;;;8.82;;
11084;SDS011;5596;46.826;8.650;2022-07-25T12:04:11;10.75;;;9.75;;
11084;SDS011;5596;46.826;8.650;2022-07-25T12:06:39;10.07;;;9.13;;
11084;SDS011;5596;46.826;8.650;2022-07-25T12:09:11;10.75;;;9.68;;
11084;SDS011;5596;46.826;8.650;2022-07-25T12:11:39;10.73;;;9.63;;
11084;SDS011;5596;46.826;8.650;2022-07-25T12:14:08;12.05;;;10.10;;
11084;SDS011;5596;46.826;8.650;2022-07-25T12:16:35;10.32;;;9.38;;
11084;SDS011;5596;46.826;8.650;2022-07-25T12:19:03;9.95;;;8.95;;
11084;SDS011;5596;46.826;8.650;2022-07-25T12:21:30;10.05;;;9.02;;
11084;SDS011;5596;46.826;8.650;2022-07-25T12:23:57;10.68;;;9.70;;
11084;SDS011;5596;46.826;8.650;2022-07-25T12:26:25;10.70;;;9.70;;
11084;SDS011;5596;46.826;8.650;2022-07-25T12:28:52;11.23;;;9.45;;
11084;SDS011;5596;46.826;8.650;2022-07-25T12:31:20;9.48;;;8.57;;
11084;SDS011;5596;46.826;8.650;2022-07-25T12:33:48;10.10;;;9.10;;
11084;SDS011;5596;46.826;8.650;2022-07-25T12:36:17;9.88;;;8.98;;
11084;SDS011;5596;46.826;8.650;2022-07-25T12:38:44;10.52;;;9.52;;
11084;SDS011;5596;46.826;8.650;2022-07-25T12:41:11;11.27;;;9.07;;
11084;SDS011;5596;46.826;8.650;2022-07-25T12:43:38;11.77;;;8.98;;
11084;SDS011;5596;46.826;8.650;2022-07-25T12:46:05;10.90;;;9.75;;
11084;SDS011;5596;46.826;8.650;2022-07-25T12:48:34;10.55;;;9.65;;
11084;SDS011;5596;46.826;8.650;2022-07-25T12:51:02;10.32;;;9.43;;
11084;SDS011;5596;46.826;8.650;2022-07-25T12:53:29;13.95;;;10.27;;
11084;SDS011;5596;46.826;8.650;2022-07-25T12:55:56;10.25;;;9.32;;
11084;SDS011;5596;46.826;8.650;2022-07-25T12:58:24;10.27;;;8.98;;
11084;SDS011;5596;46.826;8.650;2022-07-25T13:00:51;10.52;;;9.63;;
11084;SDS011;5596;46.826;8.650;2022-07-25T13:03:18;10.43;;;9.00;;
11084;SDS011;5596;46.826;8.650;2022-07-25T13:05:46;10.32;;;9.30;;
11084;SDS011;5596;46.826;8.650;2022-07-25T13:08:13;11.68;;;9.45;;
11084;SDS011;5596;46.826;8.650;2022-07-25T13:10:41;9.55;;;8.65;;
11084;SDS011;5596;46.826;8.650;2022-07-25T13:13:08;9.75;;;8.77;;
11084;SDS011;5596;46.826;8.650;2022-07-25T13:15:35;10.10;;;9.07;;
11084;SDS011;5596;46.826;8.650;2022-07-25T13:18:02;9.77;;;8.80;;
11084;SDS011;5596;46.826;8.650;2022-07-25T13:20:30;10.38;;;9.48;;
11084;SDS011;5596;46.826;8.650;2022-07-25T13:23:01;9.45;;;8.65;;
11084;SDS011;5596;46.826;8.650;2022-07-25T13:25:28;9.38;;;8.57;;
11084;SDS011;5596;46.826;8.650;2022-07-25T13:27:55;9.55;;;8.70;;
11084;SDS011;5596;46.826;8.650;2022-07-25T13:30:25;9.95;;;9.02;;
11084;SDS011;5596;46.826;8.650;2022-07-25T13:32:52;9.57;;;8.68;;
11084;SDS011;5596;46.826;8.650;2022-07-25T13:35:19;9.60;;;8.63;;
11084;SDS011;5596;46.826;8.650;2022-07-25T13:37:47;9.00;;;8.20;;
11084;SDS011;5596;46.826;8.650;2022-07-25T13:40:15;9.38;;;8.40;;
11084;SDS011;5596;46.826;8.650;2022-07-25T13:42:42;10.25;;;8.48;;
11084;SDS011;5596;46.826;8.650;2022-07-25T13:45:09;10.02;;;9.00;;
11084;SDS011;5596;46.826;8.650;2022-07-25T13:47:37;9.70;;;8.70;;
11084;SDS011;5596;46.826;8.650;2022-07-25T13:50:04;10.10;;;8.85;;
11084;SDS011;5596;46.826;8.650;2022-07-25T13:52:32;9.80;;;8.88;;
11084;SDS011;5596;46.826;8.650;2022-07-25T13:54:59;9.45;;;8.55;;
11084;SDS011;5596;46.826;8.650;2022-07-25T13:57:28;10.10;;;8.85;;
11084;SDS011;5596;46.826;8.650;2022-07-25T13:59:57;9.57;;;8.68;;
11084;SDS011;5596;46.826;8.650;2022-07-25T14:02:24;9.68;;;8.77;;
11084;SDS011;5596;46.826;8.650;2022-07-25T14:04:51;9.75;;;8.85;;
11084;SDS011;5596;46.826;8.650;2022-07-25T14:07:18;9.65;;;8.70;;
11084;SDS011;5596;46.826;8.650;2022-07-25T14:09:45;10.00;;;8.52;;
11084;SDS011;5596;46.826;8.650;2022-07-25T14:12:13;8.60;;;7.90;;
11084;SDS011;5596;46.826;8.650;2022-07-25T14:14:41;8.75;;;7.70;;
11084;SDS011;5596;46.826;8.650;2022-07-25T14:17:09;9.40;;;8.60;;
11084;SDS011;5596;46.826;8.650;2022-07-25T14:19:36;10.30;;;8.80;;
11084;SDS011;5596;46.826;8.650;2022-07-25T14:22:03;10.30;;;9.10;;
11084;SDS011;5596;46.826;8.650;2022-07-25T14:24:30;9.32;;;8.52;;
11084;SDS011;5596;46.826;8.650;2022-07-25T14:26:57;9.63;;;8.73;;
11084;SDS011;5596;46.826;8.650;2022-07-25T14:29:25;8.98;;;8.20;;
11084;SDS011;5596;46.826;8.650;2022-07-25T14:31:53;9.25;;;8.38;;
11084;SDS011;5596;46.826;8.650;2022-07-25T14:34:20;9.45;;;8.55;;
11084;SDS011;5596;46.826;8.650;2022-07-25T14:36:47;9.23;;;8.43;;
11084;SDS011;5596;46.826;8.650;2022-07-25T14:39:15;10.00;;;8.95;;
11084;SDS011;5596;46.826;8.650;2022-07-25T14:41:42;9.57;;;8.68;;
11084;SDS011;5596;46.826;8.650;2022-07-25T14:44:09;8.30;;;7.60;;
11084;SDS011;5596;46.826;8.650;2022-07-25T14:46:36;9.40;;;8.52;;